sensor_id;sensor_type;location;lat;lon;timestamp;pressure;altitude;pressure_sealevel;temperature;humidity
64862;BME280;62652;42.274;-71.436;2023-02-21T00:00:01;99690.0;;;10.777777777777779;45.9
64862;BME280;62652;42.274;-71.436;2023-02-21T00:01:01;99690.0;;;10.777777777777779;45.9
64862;BME280;62652;42.274;-71.436;2023-02-21T00:02:01;99690.0;;;10.777777777777779;45.7
64862;BME280;62652;42.274;-71.436;2023-02-21T00:03:01;99690.0;;;10.722222222222221;45.9
64862;BME280;62652;42.274;-71.436;2023-02-21T00:04:01;99690.0;;;10.722222222222221;46.2
64862;BME280;62652;42.274;-71.436;2023-02-21T00:05:01;99690.0;;;10.61111111111111;46.0
64862;BME280;62652;42.274;-71.436;2023-02-21T00:06:01;99690.0;;;10.61111111111111;46.0
64862;BME280;62652;42.274;-71.436;2023-02-21T00:07:01;99690.0;;;10.61111111111111;45.9
64862;BME280;62652;42.274;-71.436;2023-02-21T00:08:01;99680.0;;;10.5;45.9
64862;BME280;62652;42.274;-71.436;2023-02-21T00:09:01;99690.0;;;10.5;46.1
64862;BME280;62652;42.274;-71.436;2023-02-21T00:10:01;99690.0;;;10.61111111111111;45.4
64862;BME280;62652;42.274;-71.436;2023-02-21T00:11:01;99690.0;;;10.5;45.7
64862;BME280;62652;42.274;-71.436;2023-02-21T00:12:01;99690.0;;;10.5;45.5
64862;BME280;62652;42.274;-71.436;2023-02-21T00:13:01;99690.0;;;10.388888888888891;45.4
64862;BME280;62652;42.274;-71.436;2023-02-21T00:14:01;99690.0;;;10.388888888888891;45.6
64862;BME280;62652;42.274;-71.436;2023-02-21T00:15:01;99700.0;;;10.388888888888891;45.5
64862;BME280;62652;42.274;-71.436;2023-02-21T00:16:01;99700.0;;;10.388888888888891;45.7
64862;BME280;62652;42.274;-71.436;2023-02-21T00:17:01;99700.0;;;10.388888888888891;45.6
64862;BME280;62652;42.274;-71.436;2023-02-21T00:18:01;99710.0;;;10.388888888888891;45.8
64862;BME280;62652;42.274;-71.436;2023-02-21T00:19:02;99710.0;;;10.277777777777779;45.7
64862;BME280;62652;42.274;-71.436;2023-02-21T00:20:01;99710.0;;;10.388888888888891;45.1
64862;BME280;62652;42.274;-71.436;2023-02-21T00:21:01;99710.0;;;10.388888888888891;45.2
64862;BME280;62652;42.274;-71.436;2023-02-21T00:22:01;99720.0;;;10.388888888888891;44.9
64862;BME280;62652;42.274;-71.436;2023-02-21T00:23:01;99720.0;;;10.277777777777779;45.3
64862;BME280;62652;42.274;-71.436;2023-02-21T00:24:01;99720.0;;;10.277777777777779;45.1
64862;BME280;62652;42.274;-71.436;2023-02-21T00:25:01;99730.0;;;10.277777777777779;45.0
64862;BME280;62652;42.274;-71.436;2023-02-21T00:26:01;99730.0;;;10.277777777777779;45.2
64862;BME280;62652;42.274;-71.436;2023-02-21T00:27:01;99730.0;;;10.277777777777779;45.1
64862;BME280;62652;42.274;-71.436;2023-02-21T00:28:01;99730.0;;;10.277777777777779;45.2
64862;BME280;62652;42.274;-71.436;2023-02-21T00:29:01;99740.0;;;10.277777777777779;45.4
64862;BME280;62652;42.274;-71.436;2023-02-21T00:30:01;99740.0;;;10.222222222222221;45.5
64862;BME280;62652;42.274;-71.436;2023-02-21T00:31:01;99740.0;;;10.222222222222221;45.6
64862;BME280;62652;42.274;-71.436;2023-02-21T00:32:01;99740.0;;;10.222222222222221;45.9
64862;BME280;62652;42.274;-71.436;2023-02-21T00:33:01;99740.0;;;10.222222222222221;45.6
64862;BME280;62652;42.274;-71.436;2023-02-21T00:34:01;99740.0;;;10.111111111111112;45.4
64862;BME280;62652;42.274;-71.436;2023-02-21T00:35:01;99740.0;;;10.111111111111112;45.6
64862;BME280;62652;42.274;-71.436;2023-02-21T00:36:01;99740.0;;;10.111111111111112;45.7
64862;BME280;62652;42.274;-71.436;2023-02-21T00:37:01;99740.0;;;10.111111111111112;45.7
64862;BME280;62652;42.274;-71.436;2023-02-21T00:38:01;99750.0;;;10.111111111111112;45.8
64862;BME280;62652;42.274;-71.436;2023-02-21T00:39:01;99750.0;;;10.111111111111112;45.9
64862;BME280;62652;42.274;-71.436;2023-02-21T00:40:01;99750.0;;;10.111111111111112;45.8
64862;BME280;62652;42.274;-71.436;2023-02-21T00:41:01;99740.0;;;10.0;45.9
64862;BME280;62652;42.274;-71.436;2023-02-21T00:42:01;99750.0;;;10.0;46.1
64862;BME280;62652;42.274;-71.436;2023-02-21T00:43:01;99740.0;;;10.0;46.2
64862;BME280;62652;42.274;-71.436;2023-02-21T00:44:01;99740.0;;;9.888888888888888;46.5
64862;BME280;62652;42.274;-71.436;2023-02-21T00:45:01;99740.0;;;9.777777777777779;46.9
64862;BME280;62652;42.274;-71.436;2023-02-21T00:46:01;99730.0;;;9.777777777777779;46.6
64862;BME280;62652;42.274;-71.436;2023-02-21T00:47:01;99740.0;;;9.722222222222221;46.6
64862;BME280;62652;42.274;-71.436;2023-02-21T00:48:01;99730.0;;;9.722222222222221;46.8
64862;BME280;62652;42.274;-71.436;2023-02-21T00:49:02;99740.0;;;9.722222222222221;46.6
64862;BME280;62652;42.274;-71.436;2023-02-21T00:50:01;99730.0;;;9.722222222222221;46.3
64862;BME280;62652;42.274;-71.436;2023-02-21T00:51:01;99730.0;;;9.611111111111109;46.5
64862;BME280;62652;42.274;-71.436;2023-02-21T00:52:01;99730.0;;;9.611111111111109;46.7
64862;BME280;62652;42.274;-71.436;2023-02-21T00:53:01;99740.0;;;9.611111111111109;46.5
64862;BME280;62652;42.274;-71.436;2023-02-21T00:54:01;99740.0;;;9.611111111111109;46.6
64862;BME280;62652;42.274;-71.436;2023-02-21T00:55:01;99740.0;;;9.611111111111109;46.5
64862;BME280;62652;42.274;-71.436;2023-02-21T00:56:01;99740.0;;;9.5;46.8
64862;BME280;62652;42.274;-71.436;2023-02-21T00:57:01;99740.0;;;9.5;46.8
64862;BME280;62652;42.274;-71.436;2023-02-21T00:58:01;99740.0;;;9.38888888888889;47.0
64862;BME280;62652;42.274;-71.436;2023-02-21T00:59:01;99740.0;;;9.5;46.3
64862;BME280;62652;42.274;-71.436;2023-02-21T01:00:02;99740.0;;;9.38888888888889;46.4
64862;BME280;62652;42.274;-71.436;2023-02-21T01:01:01;99740.0;;;9.38888888888889;46.9
64862;BME280;62652;42.274;-71.436;2023-02-21T01:02:01;99740.0;;;9.38888888888889;46.2
64862;BME280;62652;42.274;-71.436;2023-02-21T01:03:01;99740.0;;;9.38888888888889;46.2
64862;BME280;62652;42.274;-71.436;2023-02-21T01:04:01;99740.0;;;9.38888888888889;45.9
64862;BME280;62652;42.274;-71.436;2023-02-21T01:05:01;99740.0;;;9.38888888888889;45.6
64862;BME280;62652;42.274;-71.436;2023-02-21T01:06:01;99740.0;;;9.38888888888889;45.8
64862;BME280;62652;42.274;-71.436;2023-02-21T01:07:01;99750.0;;;9.38888888888889;45.8
64862;BME280;62652;42.274;-71.436;2023-02-21T01:08:01;99740.0;;;9.277777777777779;45.9
64862;BME280;62652;42.274;-71.436;2023-02-21T01:09:01;99740.0;;;9.38888888888889;45.4
64862;BME280;62652;42.274;-71.436;2023-02-21T01:10:01;99740.0;;;9.277777777777779;45.6
64862;BME280;62652;42.274;-71.436;2023-02-21T01:11:01;99740.0;;;9.277777777777779;45.7
64862;BME280;62652;42.274;-71.436;2023-02-21T01:12:01;99740.0;;;9.277777777777779;45.4
64862;BME280;62652;42.274;-71.436;2023-02-21T01:13:02;99740.0;;;9.277777777777779;45.4
64862;BME280;62652;42.274;-71.436;2023-02-21T01:14:01;99740.0;;;9.277777777777779;45.2
64862;BME280;62652;42.274;-71.436;2023-02-21T01:15:01;99740.0;;;9.222222222222221;45.7
64862;BME280;62652;42.274;-71.436;2023-02-21T01:16:01;99730.0;;;9.222222222222221;45.3
64862;BME280;62652;42.274;-71.436;2023-02-21T01:17:01;99740.0;;;9.222222222222221;45.3
64862;BME280;62652;42.274;-71.436;2023-02-21T01:18:01;99740.0;;;9.222222222222221;45.2
64862;BME280;62652;42.274;-71.436;2023-02-21T01:19:01;99740.0;;;9.222222222222221;45.2
64862;BME280;62652;42.274;-71.436;2023-02-21T01:20:01;99740.0;;;9.11111111111111;45.6
64862;BME280;62652;42.274;-71.436;2023-02-21T01:21:01;99740.0;;;9.11111111111111;45.1
64862;BME280;62652;42.274;-71.436;2023-02-21T01:22:01;99740.0;;;9.11111111111111;44.9
64862;BME280;62652;42.274;-71.436;2023-02-21T01:23:01;99740.0;;;9.11111111111111;45.3
64862;BME280;62652;42.274;-71.436;2023-02-21T01:24:01;99740.0;;;9.11111111111111;45.0
64862;BME280;62652;42.274;-71.436;2023-02-21T01:25:01;99740.0;;;9.000000000000002;45.4
64862;BME280;62652;42.274;-71.436;2023-02-21T01:26:01;99750.0;;;9.000000000000002;45.4
64862;BME280;62652;42.274;-71.436;2023-02-21T01:27:01;99750.0;;;9.11111111111111;45.2
64862;BME280;62652;42.274;-71.436;2023-02-21T01:28:01;99750.0;;;9.000000000000002;45.1
64862;BME280;62652;42.274;-71.436;2023-02-21T01:29:01;99750.0;;;8.88888888888889;45.5
64862;BME280;62652;42.274;-71.436;2023-02-21T01:30:01;99750.0;;;8.88888888888889;45.0
64862;BME280;62652;42.274;-71.436;2023-02-21T01:31:01;99750.0;;;8.88888888888889;45.3
64862;BME280;62652;42.274;-71.436;2023-02-21T01:32:01;99750.0;;;8.88888888888889;45.3
64862;BME280;62652;42.274;-71.436;2023-02-21T01:33:01;99750.0;;;9.000000000000002;44.8
64862;BME280;62652;42.274;-71.436;2023-02-21T01:34:01;99760.0;;;8.88888888888889;45.1
64862;BME280;62652;42.274;-71.436;2023-02-21T01:35:01;99760.0;;;8.88888888888889;44.9
64862;BME280;62652;42.274;-71.436;2023-02-21T01:36:04;99760.0;;;8.88888888888889;45.0
64862;BME280;62652;42.274;-71.436;2023-02-21T01:37:01;99760.0;;;8.88888888888889;45.1
64862;BME280;62652;42.274;-71.436;2023-02-21T01:38:01;99760.0;;;8.88888888888889;45.3
64862;BME280;62652;42.274;-71.436;2023-02-21T01:39:01;99770.0;;;8.88888888888889;45.3
64862;BME280;62652;42.274;-71.436;2023-02-21T01:40:01;99760.0;;;8.88888888888889;45.3
64862;BME280;62652;42.274;-71.436;2023-02-21T01:41:01;99770.0;;;8.88888888888889;45.5
64862;BME280;62652;42.274;-71.436;2023-02-21T01:42:01;99770.0;;;8.777777777777777;45.7
64862;BME280;62652;42.274;-71.436;2023-02-21T01:43:01;99770.0;;;8.777777777777777;45.9
64862;BME280;62652;42.274;-71.436;2023-02-21T01:44:04;99770.0;;;8.722222222222223;45.7
64862;BME280;62652;42.274;-71.436;2023-02-21T01:46:01;99770.0;;;8.722222222222223;45.9
64862;BME280;62652;42.274;-71.436;2023-02-21T01:47:01;99770.0;;;8.61111111111111;46.1
64862;BME280;62652;42.274;-71.436;2023-02-21T01:48:01;99770.0;;;8.61111111111111;45.9
64862;BME280;62652;42.274;-71.436;2023-02-21T01:49:04;99770.0;;;8.61111111111111;45.9
64862;BME280;62652;42.274;-71.436;2023-02-21T01:50:03;99770.0;;;8.61111111111111;45.8
64862;BME280;62652;42.274;-71.436;2023-02-21T01:51:03;99780.0;;;8.61111111111111;45.6
64862;BME280;62652;42.274;-71.436;2023-02-21T01:52:02;99770.0;;;8.61111111111111;45.9
64862;BME280;62652;42.274;-71.436;2023-02-21T01:53:02;99770.0;;;8.61111111111111;45.3
64862;BME280;62652;42.274;-71.436;2023-02-21T01:54:02;99780.0;;;8.722222222222223;45.4
64862;BME280;62652;42.274;-71.436;2023-02-21T01:55:01;99780.0;;;8.61111111111111;45.7
64862;BME280;62652;42.274;-71.436;2023-02-21T01:56:01;99780.0;;;8.499999999999998;45.8
64862;BME280;62652;42.274;-71.436;2023-02-21T01:57:02;99780.0;;;8.499999999999998;46.0
64862;BME280;62652;42.274;-71.436;2023-02-21T01:58:01;99780.0;;;8.499999999999998;45.3
64862;BME280;62652;42.274;-71.436;2023-02-21T01:59:01;99780.0;;;8.499999999999998;45.6
64862;BME280;62652;42.274;-71.436;2023-02-21T02:00:05;99770.0;;;8.499999999999998;45.7
64862;BME280;62652;42.274;-71.436;2023-02-21T02:01:01;99780.0;;;8.499999999999998;45.6
64862;BME280;62652;42.274;-71.436;2023-02-21T02:02:03;99780.0;;;8.38888888888889;45.6
64862;BME280;62652;42.274;-71.436;2023-02-21T02:03:03;99780.0;;;8.38888888888889;45.8
64862;BME280;62652;42.274;-71.436;2023-02-21T02:04:01;99770.0;;;8.38888888888889;45.6
64862;BME280;62652;42.274;-71.436;2023-02-21T02:05:02;99780.0;;;8.38888888888889;45.4
64862;BME280;62652;42.274;-71.436;2023-02-21T02:06:04;99780.0;;;8.38888888888889;45.5
64862;BME280;62652;42.274;-71.436;2023-02-21T02:07:01;99780.0;;;8.38888888888889;45.6
64862;BME280;62652;42.274;-71.436;2023-02-21T02:08:01;99780.0;;;8.277777777777779;45.9
64862;BME280;62652;42.274;-71.436;2023-02-21T02:09:10;99780.0;;;8.222222222222221;46.1
64862;BME280;62652;42.274;-71.436;2023-02-21T02:10:01;99790.0;;;8.222222222222221;46.3
64862;BME280;62652;42.274;-71.436;2023-02-21T02:11:04;99790.0;;;8.222222222222221;46.3
64862;BME280;62652;42.274;-71.436;2023-02-21T02:12:15;99790.0;;;8.222222222222221;46.4
64862;BME280;62652;42.274;-71.436;2023-02-21T02:13:15;99790.0;;;8.11111111111111;46.5
64862;BME280;62652;42.274;-71.436;2023-02-21T02:14:10;99790.0;;;8.11111111111111;46.5
64862;BME280;62652;42.274;-71.436;2023-02-21T02:15:12;99790.0;;;8.0;46.7
64862;BME280;62652;42.274;-71.436;2023-02-21T02:16:07;99780.0;;;8.0;46.9
64862;BME280;62652;42.274;-71.436;2023-02-21T02:17:05;99780.0;;;7.88888888888889;47.1
64862;BME280;62652;42.274;-71.436;2023-02-21T02:18:16;99780.0;;;7.88888888888889;47.5
64862;BME280;62652;42.274;-71.436;2023-02-21T02:19:20;99780.0;;;7.777777777777778;47.3
64862;BME280;62652;42.274;-71.436;2023-02-21T02:25:14;99780.0;;;7.722222222222222;47.9
64862;BME280;62652;42.274;-71.436;2023-02-21T02:26:20;99780.0;;;7.722222222222222;47.8
64862;BME280;62652;42.274;-71.436;2023-02-21T02:27:19;99780.0;;;7.722222222222222;47.8
64862;BME280;62652;42.274;-71.436;2023-02-21T02:28:16;99780.0;;;7.722222222222222;47.7
64862;BME280;62652;42.274;-71.436;2023-02-21T02:29:10;99780.0;;;7.722222222222222;47.8
64862;BME280;62652;42.274;-71.436;2023-02-21T02:30:16;99780.0;;;7.722222222222222;47.8
64862;BME280;62652;42.274;-71.436;2023-02-21T02:31:18;99780.0;;;7.722222222222222;47.9
64862;BME280;62652;42.274;-71.436;2023-02-21T02:32:18;99780.0;;;7.722222222222222;48.4
64862;BME280;62652;42.274;-71.436;2023-02-21T02:33:17;99780.0;;;7.6111111111111125;48.3
64862;BME280;62652;42.274;-71.436;2023-02-21T02:35:03;99780.0;;;7.5;48.3
64862;BME280;62652;42.274;-71.436;2023-02-21T02:36:05;99780.0;;;7.6111111111111125;48.0
64862;BME280;62652;42.274;-71.436;2023-02-21T02:37:08;99770.0;;;7.6111111111111125;48.1
64862;BME280;62652;42.274;-71.436;2023-02-21T02:38:07;99780.0;;;7.5;48.0
64862;BME280;62652;42.274;-71.436;2023-02-21T02:39:08;99770.0;;;7.5;48.1
64862;BME280;62652;42.274;-71.436;2023-02-21T02:40:07;99780.0;;;7.6111111111111125;47.9
64862;BME280;62652;42.274;-71.436;2023-02-21T02:41:05;99780.0;;;7.6111111111111125;46.8
64862;BME280;62652;42.274;-71.436;2023-02-21T02:42:09;99780.0;;;7.6111111111111125;46.9
64862;BME280;62652;42.274;-71.436;2023-02-21T02:43:09;99780.0;;;7.6111111111111125;46.6
64862;BME280;62652;42.274;-71.436;2023-02-21T02:44:05;99780.0;;;7.722222222222222;45.7
64862;BME280;62652;42.274;-71.436;2023-02-21T02:45:06;99780.0;;;7.722222222222222;45.6
64862;BME280;62652;42.274;-71.436;2023-02-21T02:46:04;99780.0;;;7.722222222222222;45.7
64862;BME280;62652;42.274;-71.436;2023-02-21T02:47:04;99780.0;;;7.722222222222222;45.3
64862;BME280;62652;42.274;-71.436;2023-02-21T02:48:06;99790.0;;;7.722222222222222;45.5
64862;BME280;62652;42.274;-71.436;2023-02-21T02:49:04;99790.0;;;7.777777777777778;45.0
64862;BME280;62652;42.274;-71.436;2023-02-21T02:50:03;99790.0;;;7.722222222222222;45.1
64862;BME280;62652;42.274;-71.436;2023-02-21T02:51:05;99790.0;;;7.722222222222222;45.5
64862;BME280;62652;42.274;-71.436;2023-02-21T02:52:03;99790.0;;;7.722222222222222;45.7
64862;BME280;62652;42.274;-71.436;2023-02-21T02:53:02;99790.0;;;7.722222222222222;46.0
64862;BME280;62652;42.274;-71.436;2023-02-21T02:54:01;99790.0;;;7.722222222222222;46.6
64862;BME280;62652;42.274;-71.436;2023-02-21T02:55:03;99780.0;;;7.722222222222222;46.9
64862;BME280;62652;42.274;-71.436;2023-02-21T02:56:03;99790.0;;;7.722222222222222;47.4
64862;BME280;62652;42.274;-71.436;2023-02-21T02:57:03;99780.0;;;7.722222222222222;47.7
64862;BME280;62652;42.274;-71.436;2023-02-21T02:58:02;99780.0;;;7.6111111111111125;48.0
64862;BME280;62652;42.274;-71.436;2023-02-21T02:59:05;99780.0;;;7.6111111111111125;48.3
64862;BME280;62652;42.274;-71.436;2023-02-21T03:00:02;99780.0;;;7.6111111111111125;48.3
64862;BME280;62652;42.274;-71.436;2023-02-21T03:01:15;99780.0;;;7.5;48.7
64862;BME280;62652;42.274;-71.436;2023-02-21T03:02:16;99780.0;;;7.5;48.8
64862;BME280;62652;42.274;-71.436;2023-02-21T03:03:11;99780.0;;;7.5;49.1
64862;BME280;62652;42.274;-71.436;2023-02-21T03:04:13;99790.0;;;7.5;49.2
64862;BME280;62652;42.274;-71.436;2023-02-21T03:05:10;99780.0;;;7.5;49.0
64862;BME280;62652;42.274;-71.436;2023-02-21T03:06:12;99790.0;;;7.5;49.2
64862;BME280;62652;42.274;-71.436;2023-02-21T03:07:06;99780.0;;;7.3888888888888875;49.1
64862;BME280;62652;42.274;-71.436;2023-02-21T03:08:06;99780.0;;;7.3888888888888875;49.3
64862;BME280;62652;42.274;-71.436;2023-02-21T03:09:08;99780.0;;;7.3888888888888875;49.5
64862;BME280;62652;42.274;-71.436;2023-02-21T03:10:11;99790.0;;;7.277777777777778;49.6
64862;BME280;62652;42.274;-71.436;2023-02-21T03:11:08;99780.0;;;7.277777777777778;49.6
64862;BME280;62652;42.274;-71.436;2023-02-21T03:12:07;99780.0;;;7.222222222222222;49.7
64862;BME280;62652;42.274;-71.436;2023-02-21T03:13:06;99790.0;;;7.222222222222222;49.9
64862;BME280;62652;42.274;-71.436;2023-02-21T03:14:07;99790.0;;;7.222222222222222;50.1
64862;BME280;62652;42.274;-71.436;2023-02-21T03:15:06;99790.0;;;7.222222222222222;50.2
64862;BME280;62652;42.274;-71.436;2023-02-21T03:16:08;99790.0;;;7.222222222222222;50.3
64862;BME280;62652;42.274;-71.436;2023-02-21T03:17:03;99790.0;;;7.222222222222222;50.3
64862;BME280;62652;42.274;-71.436;2023-02-21T03:18:04;99790.0;;;7.222222222222222;50.4
64862;BME280;62652;42.274;-71.436;2023-02-21T03:19:04;99790.0;;;7.222222222222222;50.4
64862;BME280;62652;42.274;-71.436;2023-02-21T03:20:02;99790.0;;;7.222222222222222;50.7
64862;BME280;62652;42.274;-71.436;2023-02-21T03:21:04;99790.0;;;7.277777777777778;50.4
64862;BME280;62652;42.274;-71.436;2023-02-21T03:22:05;99790.0;;;7.277777777777778;50.3
64862;BME280;62652;42.274;-71.436;2023-02-21T03:23:02;99790.0;;;7.277777777777778;50.5
64862;BME280;62652;42.274;-71.436;2023-02-21T03:24:03;99800.0;;;7.277777777777778;50.8
64862;BME280;62652;42.274;-71.436;2023-02-21T03:25:02;99800.0;;;7.277777777777778;50.8
64862;BME280;62652;42.274;-71.436;2023-02-21T03:26:03;99790.0;;;7.277777777777778;51.0
64862;BME280;62652;42.274;-71.436;2023-02-21T03:27:03;99790.0;;;7.3888888888888875;50.5
64862;BME280;62652;42.274;-71.436;2023-02-21T03:28:01;99790.0;;;7.5;50.2
64862;BME280;62652;42.274;-71.436;2023-02-21T03:29:01;99790.0;;;7.5;50.1
64862;BME280;62652;42.274;-71.436;2023-02-21T03:30:03;99790.0;;;7.5;49.9
64862;BME280;62652;42.274;-71.436;2023-02-21T03:31:03;99790.0;;;7.5;50.0
64862;BME280;62652;42.274;-71.436;2023-02-21T03:32:06;99790.0;;;7.5;50.3
64862;BME280;62652;42.274;-71.436;2023-02-21T03:33:01;99800.0;;;7.5;50.0
64862;BME280;62652;42.274;-71.436;2023-02-21T03:34:01;99790.0;;;7.6111111111111125;49.6
64862;BME280;62652;42.274;-71.436;2023-02-21T03:35:01;99800.0;;;7.6111111111111125;49.5
64862;BME280;62652;42.274;-71.436;2023-02-21T03:36:03;99790.0;;;7.6111111111111125;49.9
64862;BME280;62652;42.274;-71.436;2023-02-21T03:37:01;99790.0;;;7.6111111111111125;49.9
64862;BME280;62652;42.274;-71.436;2023-02-21T03:38:01;99790.0;;;7.6111111111111125;49.8
64862;BME280;62652;42.274;-71.436;2023-02-21T03:39:01;99790.0;;;7.6111111111111125;50.0
64862;BME280;62652;42.274;-71.436;2023-02-21T03:40:02;99790.0;;;7.6111111111111125;50.4
64862;BME280;62652;42.274;-71.436;2023-02-21T03:41:01;99790.0;;;7.6111111111111125;49.4
64862;BME280;62652;42.274;-71.436;2023-02-21T03:42:01;99790.0;;;7.6111111111111125;49.7
64862;BME280;62652;42.274;-71.436;2023-02-21T03:43:04;99790.0;;;7.6111111111111125;49.4
64862;BME280;62652;42.274;-71.436;2023-02-21T03:44:01;99780.0;;;7.6111111111111125;50.6
64862;BME280;62652;42.274;-71.436;2023-02-21T03:45:01;99780.0;;;7.6111111111111125;49.3
64862;BME280;62652;42.274;-71.436;2023-02-21T03:46:01;99780.0;;;7.6111111111111125;49.1
64862;BME280;62652;42.274;-71.436;2023-02-21T03:47:01;99770.0;;;7.722222222222222;49.3
64862;BME280;62652;42.274;-71.436;2023-02-21T03:48:01;99770.0;;;7.722222222222222;49.2
64862;BME280;62652;42.274;-71.436;2023-02-21T03:49:01;99770.0;;;7.6111111111111125;50.1
64862;BME280;62652;42.274;-71.436;2023-02-21T03:50:01;99770.0;;;7.6111111111111125;49.8
64862;BME280;62652;42.274;-71.436;2023-02-21T03:51:01;99770.0;;;7.6111111111111125;50.4
64862;BME280;62652;42.274;-71.436;2023-02-21T03:52:01;99770.0;;;7.6111111111111125;50.3
64862;BME280;62652;42.274;-71.436;2023-02-21T03:53:01;99780.0;;;7.5;50.7
64862;BME280;62652;42.274;-71.436;2023-02-21T03:54:01;99780.0;;;7.5;51.1
64862;BME280;62652;42.274;-71.436;2023-02-21T03:55:01;99780.0;;;7.5;51.5
64862;BME280;62652;42.274;-71.436;2023-02-21T03:56:01;99790.0;;;7.5;50.7
64862;BME280;62652;42.274;-71.436;2023-02-21T03:57:01;99790.0;;;7.6111111111111125;50.7
64862;BME280;62652;42.274;-71.436;2023-02-21T03:58:01;99790.0;;;7.6111111111111125;50.5
64862;BME280;62652;42.274;-71.436;2023-02-21T03:59:01;99790.0;;;7.6111111111111125;50.4
64862;BME280;62652;42.274;-71.436;2023-02-21T04:00:02;99790.0;;;7.6111111111111125;49.8
64862;BME280;62652;42.274;-71.436;2023-02-21T04:01:01;99790.0;;;7.6111111111111125;49.9
64862;BME280;62652;42.274;-71.436;2023-02-21T04:02:01;99790.0;;;7.6111111111111125;50.0
64862;BME280;62652;42.274;-71.436;2023-02-21T04:03:01;99790.0;;;7.6111111111111125;49.9
64862;BME280;62652;42.274;-71.436;2023-02-21T04:04:01;99790.0;;;7.722222222222222;49.6
64862;BME280;62652;42.274;-71.436;2023-02-21T04:05:01;99790.0;;;7.6111111111111125;49.9
64862;BME280;62652;42.274;-71.436;2023-02-21T04:06:01;99780.0;;;7.6111111111111125;50.2
64862;BME280;62652;42.274;-71.436;2023-02-21T04:07:01;99780.0;;;7.6111111111111125;50.4
64862;BME280;62652;42.274;-71.436;2023-02-21T04:08:01;99780.0;;;7.6111111111111125;50.7
64862;BME280;62652;42.274;-71.436;2023-02-21T04:09:01;99770.0;;;7.6111111111111125;50.6
64862;BME280;62652;42.274;-71.436;2023-02-21T04:10:01;99780.0;;;7.6111111111111125;50.5
64862;BME280;62652;42.274;-71.436;2023-02-21T04:11:01;99770.0;;;7.6111111111111125;50.0
64862;BME280;62652;42.274;-71.436;2023-02-21T04:12:01;99770.0;;;7.6111111111111125;49.8
64862;BME280;62652;42.274;-71.436;2023-02-21T04:13:01;99770.0;;;7.5;50.4
64862;BME280;62652;42.274;-71.436;2023-02-21T04:14:01;99770.0;;;7.5;50.6
64862;BME280;62652;42.274;-71.436;2023-02-21T04:15:01;99770.0;;;7.5;50.6
64862;BME280;62652;42.274;-71.436;2023-02-21T04:16:01;99770.0;;;7.3888888888888875;50.8
64862;BME280;62652;42.274;-71.436;2023-02-21T04:17:01;99770.0;;;7.5;50.6
64862;BME280;62652;42.274;-71.436;2023-02-21T04:18:01;99770.0;;;7.5;50.1
64862;BME280;62652;42.274;-71.436;2023-02-21T04:19:01;99780.0;;;7.6111111111111125;49.8
64862;BME280;62652;42.274;-71.436;2023-02-21T04:20:01;99780.0;;;7.722222222222222;49.7
64862;BME280;62652;42.274;-71.436;2023-02-21T04:21:01;99780.0;;;7.6111111111111125;50.0
64862;BME280;62652;42.274;-71.436;2023-02-21T04:22:01;99770.0;;;7.6111111111111125;50.0
64862;BME280;62652;42.274;-71.436;2023-02-21T04:23:01;99770.0;;;7.5;50.0
64862;BME280;62652;42.274;-71.436;2023-02-21T04:24:01;99770.0;;;7.5;50.1
64862;BME280;62652;42.274;-71.436;2023-02-21T04:25:01;99770.0;;;7.5;49.9
64862;BME280;62652;42.274;-71.436;2023-02-21T04:26:01;99770.0;;;7.5;49.8
64862;BME280;62652;42.274;-71.436;2023-02-21T04:27:01;99760.0;;;7.5;50.0
64862;BME280;62652;42.274;-71.436;2023-02-21T04:28:01;99770.0;;;7.5;50.5
64862;BME280;62652;42.274;-71.436;2023-02-21T04:29:01;99770.0;;;7.5;50.1
64862;BME280;62652;42.274;-71.436;2023-02-21T04:30:01;99770.0;;;7.3888888888888875;50.0
64862;BME280;62652;42.274;-71.436;2023-02-21T04:31:01;99770.0;;;7.3888888888888875;50.2
64862;BME280;62652;42.274;-71.436;2023-02-21T04:32:01;99780.0;;;7.3888888888888875;50.1
64862;BME280;62652;42.274;-71.436;2023-02-21T04:33:01;99780.0;;;7.3888888888888875;50.0
64862;BME280;62652;42.274;-71.436;2023-02-21T04:34:01;99780.0;;;7.3888888888888875;49.8
64862;BME280;62652;42.274;-71.436;2023-02-21T04:35:01;99780.0;;;7.5;49.6
64862;BME280;62652;42.274;-71.436;2023-02-21T04:36:01;99790.0;;;7.3888888888888875;50.1
64862;BME280;62652;42.274;-71.436;2023-02-21T04:37:01;99780.0;;;7.3888888888888875;51.0
64862;BME280;62652;42.274;-71.436;2023-02-21T04:38:01;99780.0;;;7.3888888888888875;50.8
64862;BME280;62652;42.274;-71.436;2023-02-21T04:39:01;99780.0;;;7.3888888888888875;50.3
64862;BME280;62652;42.274;-71.436;2023-02-21T04:40:01;99780.0;;;7.3888888888888875;50.6
64862;BME280;62652;42.274;-71.436;2023-02-21T04:41:01;99790.0;;;7.3888888888888875;50.2
64862;BME280;62652;42.274;-71.436;2023-02-21T04:42:01;99790.0;;;7.3888888888888875;50.2
64862;BME280;62652;42.274;-71.436;2023-02-21T04:43:01;99800.0;;;7.3888888888888875;49.9
64862;BME280;62652;42.274;-71.436;2023-02-21T04:44:01;99800.0;;;7.3888888888888875;50.2
64862;BME280;62652;42.274;-71.436;2023-02-21T04:45:01;99810.0;;;7.5;49.8
64862;BME280;62652;42.274;-71.436;2023-02-21T04:46:01;99810.0;;;7.5;49.7
64862;BME280;62652;42.274;-71.436;2023-02-21T04:47:01;99810.0;;;7.5;50.2